Terminal Aerodrome Forecast
Issued by NWS

Home | Current Version | Previous Version | Text Only | Print | Product List | Glossary On
Versions: 1 2 3 4 5 6 7 8 9 10 11 12 13 14 15 16 17
085
FTUS42 KTAE 301728
TAFECP
TAF
KECP 301728Z 3018/3118 18012KT P6SM BKN040
      TEMPO 3023/3101 TSRA BKN030CB
     FM310100 20009KT 3SM TSRA BKN025CB
     FM310800 24008KT P6SM BKN030
     FM311100 29009KT P6SM SCT040=

USA.gov is the U.S. government's official web portal to all federal, state and local government web resources and services.